Time;durP1;ratioP1;P1;durP2;ratioP2;P2;SDS_P1;SDS_P2;PMS_P1;PMS_P2;Temp;Humidity;BMP_temperature;BMP_pressure;BME280_temperature;BME280_humidity;BME280_pressure;Samples;Min_cycle;Max_cycle;Signal;HPM_P1;HPM_P2
2023/04/21 00:01:48;;;;;;;15.17;12.17;;;;;6.30;100814.00;;;;9883691;29;20269;-83
2023/04/21 00:06:51;;;;;;;15.70;11.97;;;;;6.40;100801.00;;;;9897308;29;20220;-83
2023/04/21 00:11:54;;;;;;;13.53;11.67;;;;;6.40;100798.00;;;;9869749;29;20238;-84
2023/04/21 00:16:58;;;;;;;16.27;13.10;;;;;6.50;100788.00;;;;9881999;29;20268;-83
2023/04/21 00:22:00;;;;;;;17.17;12.67;;;;;6.60;100785.00;;;;9876722;30;20240;-84
2023/04/21 00:27:02;;;;;;;14.07;12.40;;;;;6.70;100777.00;;;;9870440;29;20238;-84
2023/04/21 00:32:07;;;;;;;16.77;12.97;;;;;6.80;100779.00;;;;9878701;29;20228;-84
2023/04/21 00:37:09;;;;;;;18.07;14.70;;;;;6.80;100781.00;;;;9887567;29;20243;-83
2023/04/21 00:42:16;;;;;;;17.63;14.57;;;;;6.90;100766.00;;;;9884238;29;20274;-83
2023/04/21 00:47:19;;;;;;;19.73;16.20;;;;;6.90;100776.00;;;;9898130;29;20226;-83
2023/04/21 00:52:25;;;;;;;20.47;15.27;;;;;6.80;100781.00;;;;9897695;29;20261;-84
2023/04/21 00:57:27;;;;;;;20.90;16.53;;;;;6.80;100784.00;;;;9881923;29;20219;-84
2023/04/21 01:02:29;;;;;;;25.10;18.63;;;;;6.80;100769.00;;;;9868123;29;20886;-84
2023/04/21 01:07:32;;;;;;;24.70;19.30;;;;;6.80;100772.00;;;;9884265;29;20479;-82
2023/04/21 01:12:46;;;;;;;25.43;19.67;;;;;6.80;100773.00;;;;9916823;29;20224;-83
2023/04/21 01:17:49;;;;;;;27.60;20.33;;;;;6.70;100770.00;;;;9884510;29;20229;-83
2023/04/21 01:22:51;;;;;;;26.23;20.07;;;;;6.70;100771.00;;;;9898462;29;20231;-82
2023/04/21 01:27:53;;;;;;;27.77;22.03;;;;;6.70;100760.00;;;;9883603;29;20295;-83
2023/04/21 01:32:57;;;;;;;26.20;20.90;;;;;6.70;100761.00;;;;9847307;30;20214;-83
2023/04/21 01:38:00;;;;;;;27.73;22.07;;;;;6.70;100770.00;;;;9895518;29;20250;-83
2023/04/21 01:43:02;;;;;;;31.77;22.87;;;;;6.70;100767.00;;;;9866039;29;20248;-83
2023/04/21 01:48:05;;;;;;;29.53;22.20;;;;;6.70;100765.00;;;;9878300;29;20222;-82
2023/04/21 01:53:07;;;;;;;32.97;24.37;;;;;6.60;100760.00;;;;9902000;29;20211;-82
2023/04/21 01:58:09;;;;;;;39.23;26.87;;;;;6.60;100754.00;;;;9873751;29;20220;-82
2023/04/21 02:03:11;;;;;;;36.70;26.23;;;;;6.50;100759.00;;;;9917624;29;20270;-82
2023/04/21 02:08:15;;;;;;;39.30;28.17;;;;;6.50;100753.00;;;;9903143;29;20220;-82
2023/04/21 02:13:18;;;;;;;40.43;27.43;;;;;6.50;100747.00;;;;9903305;29;20265;-82
2023/04/21 02:18:20;;;;;;;41.80;30.23;;;;;6.50;100763.00;;;;9887735;29;20285;-81
2023/04/21 02:23:22;;;;;;;44.57;30.67;;;;;6.50;100750.00;;;;9871322;29;20239;-82
2023/04/21 02:28:27;;;;;;;44.17;32.20;;;;;6.50;100746.00;;;;9872816;29;20216;-81
2023/04/21 02:33:32;;;;;;;45.60;30.73;;;;;6.50;100738.00;;;;9872492;29;20223;-82
2023/04/21 02:38:34;;;;;;;47.13;31.73;;;;;6.50;100734.00;;;;9901207;29;20279;-82
2023/04/21 02:43:36;;;;;;;44.97;31.53;;;;;6.50;100729.00;;;;9871698;29;20224;-82
2023/04/21 02:48:38;;;;;;;45.87;33.13;;;;;6.50;100726.00;;;;9886610;29;20219;-82
2023/04/21 02:53:41;;;;;;;50.27;34.30;;;;;6.50;100735.00;;;;9900547;29;20239;-82
2023/04/21 02:58:43;;;;;;;48.00;32.90;;;;;6.50;100731.00;;;;9850257;30;20208;-82
2023/04/21 03:03:45;;;;;;;51.17;33.90;;;;;6.50;100728.00;;;;9871049;30;20235;-82
2023/04/21 03:08:47;;;;;;;48.27;33.03;;;;;6.50;100715.00;;;;9878535;29;20832;-81
2023/04/21 03:13:49;;;;;;;56.10;33.10;;;;;6.60;100711.00;;;;9885633;29;20299;-82
2023/04/21 03:18:52;;;;;;;52.27;35.47;;;;;6.60;100718.00;;;;9901848;29;20214;-80
2023/04/21 03:23:54;;;;;;;54.07;36.03;;;;;6.60;100715.00;;;;9869366;30;20223;-82
2023/04/21 03:28:56;;;;;;;50.97;34.53;;;;;6.60;100730.00;;;;9877286;30;20212;-82
2023/04/21 03:33:58;;;;;;;51.77;34.83;;;;;6.60;100723.00;;;;9879715;29;20791;-82
2023/04/21 03:39:01;;;;;;;50.53;35.57;;;;;6.60;100717.00;;;;9902362;29;20219;-82
2023/04/21 03:44:20;;;;;;;50.80;34.77;;;;;6.60;100718.00;;;;9885727;29;20207;-82
2023/04/21 03:49:22;;;;;;;52.43;35.93;;;;;6.60;100706.00;;;;9898941;29;20247;-82
2023/04/21 03:54:24;;;;;;;51.17;33.43;;;;;6.60;100694.00;;;;9882891;29;20272;-82
2023/04/21 03:59:26;;;;;;;49.87;34.63;;;;;6.60;100711.00;;;;9899017;29;20223;-82
2023/04/21 04:04:28;;;;;;;48.80;33.57;;;;;6.40;100702.00;;;;9870512;29;20223;-82
2023/04/21 04:09:31;;;;;;;53.73;34.10;;;;;6.30;100700.00;;;;9880796;29;20302;-82
2023/04/21 04:14:33;;;;;;;47.47;33.97;;;;;6.20;100701.00;;;;9886869;29;20219;-82
2023/04/21 04:19:35;;;;;;;51.53;34.80;;;;;6.00;100704.00;;;;9897097;29;20246;-82
2023/04/21 04:24:37;;;;;;;52.87;33.87;;;;;5.90;100703.00;;;;9896228;29;20219;-82
2023/04/21 04:29:40;;;;;;;52.03;34.33;;;;;5.90;100706.00;;;;9896797;29;20227;-82
2023/04/21 04:34:41;;;;;;;54.43;34.10;;;;;5.80;100712.00;;;;9890010;29;20219;-81
2023/04/21 04:39:44;;;;;;;51.67;35.00;;;;;5.80;100709.00;;;;9878865;29;20295;-82
2023/04/21 04:44:46;;;;;;;57.60;35.73;;;;;5.80;100706.00;;;;9897337;29;20219;-82
2023/04/21 04:49:56;;;;;;;55.33;36.37;;;;;5.90;100713.00;;;;11681470;24;20208;-81
2023/04/21 04:54:59;;;;;;;57.30;36.17;;;;;6.00;100726.00;;;;9818729;30;20247;-80
2023/04/21 05:00:00;;;;;;;57.73;35.43;;;;;6.10;100738.00;;;;9831035;30;20232;-81
2023/04/21 05:05:04;;;;;;;55.87;37.27;;;;;6.30;100741.00;;;;9821788;30;20224;-81
2023/04/21 05:10:06;;;;;;;61.57;37.80;;;;;6.40;100741.00;;;;9828014;30;20227;-81
2023/04/21 05:15:10;;;;;;;52.63;34.33;;;;;6.50;100737.00;;;;9800094;30;20231;-81
2023/04/21 05:20:11;;;;;;;54.47;36.03;;;;;6.40;100745.00;;;;9800057;30;20240;-81
2023/04/21 05:25:14;;;;;;;52.17;34.20;;;;;6.20;100745.00;;;;9807534;30;20217;-81
2023/04/21 05:30:16;;;;;;;53.10;34.00;;;;;6.20;100744.00;;;;9806895;30;20217;-80
2023/04/21 05:35:19;;;;;;;55.23;34.70;;;;;6.40;100749.00;;;;9799978;30;20213;-81
2023/04/21 05:40:21;;;;;;;54.50;34.83;;;;;6.70;100749.00;;;;9774142;30;20866;-81
2023/04/21 05:45:23;;;;;;;54.30;33.80;;;;;6.90;100742.00;;;;9822231;30;20217;-81
2023/04/21 05:50:32;;;;;;;55.67;34.67;;;;;7.10;100747.00;;;;9791338;30;20231;-81
2023/04/21 05:55:35;;;;;;;52.57;33.30;;;;;7.30;100757.00;;;;9808115;30;20217;-82
2023/04/21 06:00:37;;;;;;;46.60;29.97;;;;;7.50;100752.00;;;;9816388;30;20237;-81
2023/04/21 06:05:39;;;;;;;46.57;30.63;;;;;7.70;100753.00;;;;9819155;30;20217;-82
2023/04/21 06:10:41;;;;;;;43.60;30.77;;;;;8.00;100749.00;;;;9802504;30;20935;-81
2023/04/21 06:15:43;;;;;;;37.87;27.37;;;;;8.40;100749.00;;;;9804068;30;20217;-81
2023/04/21 06:20:50;;;;;;;35.67;27.33;;;;;8.80;100750.00;;;;9775600;30;20225;-80
2023/04/21 06:26:04;;;;;;;35.07;26.03;;;;;9.10;100754.00;;;;9828593;30;20217;-82
2023/04/21 06:31:08;;;;;;;32.33;24.43;;;;;9.30;100748.00;;;;9784184;30;20807;-82
2023/04/21 06:36:11;;;;;;;28.07;22.97;;;;;9.60;100758.00;;;;9806629;30;20213;-82
2023/04/21 06:41:13;;;;;;;28.17;21.87;;;;;9.80;100749.00;;;;9792783;30;20240;-82
2023/04/21 06:46:15;;;;;;;27.13;20.80;;;;;10.00;100743.00;;;;9820247;30;20307;-84
2023/04/21 06:51:17;;;;;;;24.20;19.83;;;;;10.10;100747.00;;;;9799967;30;20238;-83
2023/04/21 06:56:20;;;;;;;26.60;20.67;;;;;10.40;100757.00;;;;9804481;30;20244;-82
2023/04/21 07:01:24;;;;;;;26.07;20.03;;;;;10.90;100759.00;;;;9777747;30;20245;-82
2023/04/21 07:06:27;;;;;;;24.27;19.97;;;;;11.10;100744.00;;;;9825376;30;20430;-83
2023/04/21 07:11:29;;;;;;;21.37;18.87;;;;;11.20;100747.00;;;;9788612;30;20257;-84
2023/04/21 07:16:31;;;;;;;23.07;17.53;;;;;11.20;100747.00;;;;9803311;30;20224;-83
2023/04/21 07:21:35;;;;;;;21.33;17.83;;;;;11.40;100739.00;;;;9810465;30;20244;-83
2023/04/21 07:26:37;;;;;;;17.80;15.50;;;;;12.00;100741.00;;;;9818317;30;20760;-82
2023/04/21 07:31:39;;;;;;;16.83;14.20;;;;;12.30;100745.00;;;;9821744;30;20229;-83
2023/04/21 07:36:41;;;;;;;15.87;13.03;;;;;12.40;100748.00;;;;9799642;30;20232;-83
2023/04/21 07:41:43;;;;;;;17.07;13.67;;;;;12.60;100743.00;;;;9804911;30;20241;-83
2023/04/21 07:46:45;;;;;;;17.40;13.73;;;;;13.00;100734.00;;;;9807714;30;20240;-83
2023/04/21 07:51:47;;;;;;;14.97;12.77;;;;;12.80;100736.00;;;;9808686;30;20249;-83
2023/04/21 07:56:49;;;;;;;16.80;14.07;;;;;13.50;100737.00;;;;9815057;30;20225;-83
2023/04/21 08:01:51;;;;;;;14.67;13.10;;;;;14.10;100733.00;;;;9809100;30;20250;-83
2023/04/21 08:06:54;;;;;;;14.67;13.10;;;;;14.40;100732.00;;;;9785974;30;20225;-83
2023/04/21 08:11:56;;;;;;;12.90;11.60;;;;;14.70;100710.00;;;;9824454;30;20236;-83
2023/04/21 08:16:59;;;;;;;12.32;10.93;;;;;14.90;100714.00;;;;9816337;30;20266;-82
2023/04/21 08:22:01;;;;;;;13.05;11.75;;;;;15.00;100717.00;;;;9800168;30;20966;-83
2023/04/21 08:27:03;;;;;;;13.70;11.40;;;;;15.20;100716.00;;;;9795097;30;20235;-83
2023/04/21 08:32:06;;;;;;;13.20;11.80;;;;;15.60;100723.00;;;;9819122;30;20229;-83
2023/04/21 08:37:08;;;;;;;12.73;11.43;;;;;16.10;100719.00;;;;9794901;30;20229;-84
2023/04/21 08:42:18;;;;;;;12.90;11.30;;;;;15.90;100716.00;;;;9826151;30;20605;-83
2023/04/21 08:47:23;;;;;;;12.98;11.63;;;;;16.10;100711.00;;;;9785163;30;20233;-84
2023/04/21 08:52:25;;;;;;;13.57;12.25;;;;;16.30;100716.00;;;;9806299;30;20244;-84
2023/04/21 08:57:27;;;;;;;14.23;12.80;;;;;16.20;100714.00;;;;9798319;30;20227;-83
2023/04/21 09:02:29;;;;;;;12.77;11.50;;;;;16.70;100713.00;;;;9802129;30;20244;-84
2023/04/21 09:07:37;;;;;;;12.10;10.70;;;;;17.00;100712.00;;;;9810874;30;20225;-84
2023/04/21 09:12:40;;;;;;;11.93;10.73;;;;;17.30;100699.00;;;;9803778;30;20213;-83
2023/04/21 09:17:44;;;;;;;13.68;11.43;;;;;17.60;100703.00;;;;9780614;30;20228;-83
2023/04/21 09:22:50;;;;;;;12.45;11.25;;;;;17.90;100694.00;;;;9811433;30;20328;-83
2023/04/21 09:27:53;;;;;;;11.73;10.55;;;;;18.00;100692.00;;;;9819213;30;20235;-84
2023/04/21 09:32:59;;;;;;;11.93;10.80;;;;;18.20;100684.00;;;;9786256;30;20229;-84
2023/04/21 09:38:02;;;;;;;10.75;9.65;;;;;18.30;100684.00;;;;9837500;30;20225;-83
2023/04/21 09:43:05;;;;;;;11.95;10.77;;;;;18.40;100669.00;;;;9803580;30;20236;-84
2023/04/21 09:48:10;;;;;;;11.07;9.98;;;;;17.90;100668.00;;;;9811341;30;20686;-85
2023/04/21 09:53:20;;;;;;;10.50;9.50;;;;;18.60;100655.00;;;;9806422;30;20341;-85
2023/04/21 09:58:26;;;;;;;10.02;9.02;;;;;19.30;100639.00;;;;9775842;30;20244;-86
2023/04/21 10:03:30;;;;;;;10.18;9.18;;;;;19.40;100638.00;;;;9819007;30;20259;-86
2023/04/21 10:08:35;;;;;;;10.20;9.20;;;;;19.40;100637.00;;;;9802543;30;20255;-85
2023/04/21 10:13:38;;;;;;;11.57;10.38;;;;;19.60;100638.00;;;;9806842;30;21153;-86
2023/04/21 10:18:45;;;;;;;11.10;9.90;;;;;20.00;100626.00;;;;9830789;30;20327;-85
2023/04/21 10:23:48;;;;;;;10.73;9.63;;;;;20.20;100622.00;;;;9809434;30;20236;-85
2023/04/21 10:29:00;;;;;;;10.30;9.25;;;;;20.20;100604.00;;;;9830328;30;20228;-86
2023/04/21 10:34:08;;;;;;;11.27;10.18;;;;;19.80;100598.00;;;;9837582;30;20277;-83
2023/04/21 10:39:24;;;;;;;10.38;9.27;;;;;19.70;100595.00;;;;9800240;30;20817;-84
2023/04/21 10:44:30;;;;;;;9.73;8.38;;;;;19.90;100578.00;;;;9805752;30;20290;-84
2023/04/21 10:49:38;;;;;;;11.57;9.63;;;;;19.80;100592.00;;;;9820031;30;20239;-84
2023/04/21 10:54:46;;;;;;;11.68;10.23;;;;;20.10;100572.00;;;;9823655;30;20336;-84
2023/04/21 10:59:50;;;;;;;11.88;10.68;;;;;21.40;100566.00;;;;9793341;30;20242;-85
2023/04/21 11:04:53;;;;;;;10.20;9.15;;;;;21.60;100560.00;;;;9779428;30;20519;-85
2023/04/21 11:10:06;;;;;;;9.95;9.00;;;;;21.60;100553.00;;;;9793734;30;20291;-84
2023/04/21 11:15:12;;;;;;;9.90;8.88;;;;;22.20;100549.00;;;;9824055;30;20231;-86
2023/04/21 11:20:16;;;;;;;11.48;10.38;;;;;22.60;100534.00;;;;9797309;30;20221;-85
2023/04/21 11:25:18;;;;;;;9.35;8.43;;;;;22.70;100534.00;;;;9793468;30;20225;-85
2023/04/21 11:30:31;;;;;;;7.68;6.97;;;;;23.30;100526.00;;;;9785172;30;20606;-84
2023/04/21 11:35:39;;;;;;;8.55;7.75;;;;;23.20;100521.00;;;;9804899;30;20517;-85
2023/04/21 11:40:47;;;;;;;8.88;7.93;;;;;22.80;100514.00;;;;9798077;30;20492;-86
2023/04/21 11:45:50;;;;;;;9.88;6.40;;;;;22.60;100502.00;;;;9793093;30;20221;-85
2023/04/21 11:50:52;;;;;;;8.50;7.70;;;;;22.70;100494.00;;;;9804512;30;20227;-85
2023/04/21 11:55:55;;;;;;;7.80;7.07;;;;;23.20;100488.00;;;;9814029;30;20351;-85
2023/04/21 12:01:06;;;;;;;8.20;7.00;;;;;23.60;100491.00;;;;9790752;30;20233;-86
2023/04/21 12:06:08;;;;;;;9.15;8.27;;;;;23.60;100481.00;;;;9792812;30;20233;-86
2023/04/21 12:11:10;;;;;;;8.98;7.97;;;;;23.60;100480.00;;;;9806746;30;20240;-85
2023/04/21 12:16:13;;;;;;;8.80;8.00;;;;;24.10;100488.00;;;;9790173;30;20231;-85
2023/04/21 12:21:15;;;;;;;9.27;8.43;;;;;24.40;100476.00;;;;9768976;30;20250;-86
2023/04/21 12:26:17;;;;;;;7.90;7.10;;;;;23.90;100483.00;;;;9775402;30;20925;-85
2023/04/21 12:31:20;;;;;;;9.07;7.82;;;;;23.30;100471.00;;;;9786981;30;20241;-85
2023/04/21 12:36:22;;;;;;;9.40;8.05;;;;;24.90;100471.00;;;;9782274;30;20233;-85
2023/04/21 12:41:27;;;;;;;8.38;7.57;;;;;25.40;100469.00;;;;9771288;30;20248;-83
2023/04/21 12:46:29;;;;;;;10.23;9.23;;;;;24.80;100471.00;;;;9802600;30;20239;-84
2023/04/21 12:51:32;;;;;;;8.55;7.75;;;;;24.50;100469.00;;;;9778432;30;20931;-85
2023/04/21 12:56:34;;;;;;;9.15;7.60;;;;;24.10;100457.00;;;;9780390;30;20515;-85
2023/04/21 13:01:37;;;;;;;10.27;8.48;;;;;24.20;100452.00;;;;9777468;30;20329;-85
2023/04/21 13:06:39;;;;;;;9.63;8.23;;;;;24.30;100445.00;;;;9809087;30;20363;-85
2023/04/21 13:11:42;;;;;;;8.23;6.93;;;;;23.70;100432.00;;;;9829604;30;20312;-85
2023/04/21 13:16:44;;;;;;;7.88;5.82;;;;;23.00;100436.00;;;;9779409;30;20821;-84
2023/04/21 13:21:47;;;;;;;6.82;6.18;;;;;22.50;100419.00;;;;9786960;30;20225;-85
2023/04/21 13:26:49;;;;;;;6.93;5.80;;;;;22.40;100415.00;;;;9819479;30;20232;-84
2023/04/21 13:31:51;;;;;;;5.68;5.18;;;;;22.40;100404.00;;;;9821072;30;20227;-84
2023/04/21 13:36:53;;;;;;;5.18;4.28;;;;;22.00;100407.00;;;;9791094;30;20233;-84
2023/04/21 13:41:56;;;;;;;5.25;4.68;;;;;21.80;100396.00;;;;9799460;30;20228;-85
2023/04/21 13:46:59;;;;;;;4.72;4.22;;;;;21.90;100386.00;;;;9823033;30;20430;-86
2023/04/21 13:52:01;;;;;;;9.05;5.28;;;;;21.40;100367.00;;;;9836867;30;20233;-84
2023/04/21 13:57:05;;;;;;;5.35;4.85;;;;;21.30;100382.00;;;;9773765;30;20308;-85
2023/04/21 14:02:07;;;;;;;4.72;4.28;;;;;20.90;100377.00;;;;9808663;30;20239;-84
2023/04/21 14:07:09;;;;;;;7.47;4.70;;;;;20.70;100374.00;;;;9814722;30;20232;-84
2023/04/21 14:12:11;;;;;;;6.03;4.82;;;;;21.10;100356.00;;;;9782661;30;20286;-84
2023/04/21 14:17:15;;;;;;;5.95;4.13;;;;;23.20;100344.00;;;;9775979;30;20233;-84
2023/04/21 14:22:19;;;;;;;4.93;4.38;;;;;23.30;100337.00;;;;9748607;30;20263;-84
2023/04/21 14:27:21;;;;;;;5.63;4.30;;;;;29.10;100310.00;;;;9806792;30;20275;-84
2023/04/21 14:32:24;;;;;;;6.43;4.22;;;;;31.20;100310.00;;;;9785340;30;20244;-85
2023/04/21 14:37:27;;;;;;;7.28;4.90;;;;;28.20;100334.00;;;;9814281;30;20228;-84
2023/04/21 14:42:29;;;;;;;4.40;4.00;;;;;25.50;100321.00;;;;9827086;30;20327;-84
2023/04/21 14:47:32;;;;;;;4.00;3.60;;;;;26.00;100299.00;;;;9799400;30;20229;-84
2023/04/21 14:52:34;;;;;;;5.22;4.32;;;;;27.70;100278.00;;;;9799278;30;20384;-84
2023/04/21 14:57:36;;;;;;;6.97;4.60;;;;;29.80;100273.00;;;;9806078;30;20545;-84
2023/04/21 15:02:38;;;;;;;6.00;5.22;;;;;27.40;100282.00;;;;9756077;30;20256;-84
2023/04/21 15:07:41;;;;;;;9.43;5.10;;;;;24.50;100286.00;;;;9804807;30;20869;-84
2023/04/21 15:12:43;;;;;;;6.13;5.50;;;;;21.80;100275.00;;;;9808074;30;20248;-84
2023/04/21 15:17:46;;;;;;;5.30;4.82;;;;;19.80;100270.00;;;;9824004;30;20241;-85
2023/04/21 15:22:48;;;;;;;6.30;4.70;;;;;19.00;100258.00;;;;9813892;30;20277;-84
2023/04/21 15:27:50;;;;;;;9.38;5.75;;;;;19.50;100244.00;;;;9812132;30;20721;-84
2023/04/21 15:32:52;;;;;;;9.38;5.40;;;;;20.00;100234.00;;;;9799613;30;20235;-83
2023/04/21 15:37:54;;;;;;;5.60;5.03;;;;;20.10;100228.00;;;;9829893;30;20228;-83
2023/04/21 15:42:56;;;;;;;6.55;4.97;;;;;20.30;100216.00;;;;9833927;30;20268;-84
2023/04/21 15:47:58;;;;;;;5.85;5.15;;;;;20.70;100199.00;;;;9808305;30;20307;-83
2023/04/21 15:53:05;;;;;;;8.07;5.20;;;;;19.50;100200.00;;;;9782046;30;20229;-84
2023/04/21 15:58:07;;;;;;;7.53;5.65;;;;;18.50;100195.00;;;;9779439;30;20235;-85
2023/04/21 16:03:09;;;;;;;6.07;5.30;;;;;18.10;100171.00;;;;9784071;30;20253;-83
2023/04/21 16:08:11;;;;;;;5.50;4.47;;;;;17.70;100165.00;;;;9778970;30;20992;-83
2023/04/21 16:13:13;;;;;;;6.20;4.90;;;;;17.90;100159.00;;;;9792900;30;20222;-83
2023/04/21 16:18:15;;;;;;;7.57;4.43;;;;;18.10;100160.00;;;;9777540;30;20905;-83
2023/04/21 16:23:18;;;;;;;3.30;2.83;;;;;17.60;100171.00;;;;9791119;30;21111;-84
2023/04/21 16:28:20;;;;;;;3.03;1.50;;;;;16.90;100186.00;;;;9817980;30;20255;-84
2023/04/21 16:33:23;;;;;;;2.35;1.48;;;;;16.50;100188.00;;;;9792858;30;20236;-84
2023/04/21 16:38:25;;;;;;;1.55;1.30;;;;;16.20;100174.00;;;;9810773;30;20251;-84
2023/04/21 16:43:27;;;;;;;1.55;1.45;;;;;16.20;100165.00;;;;9802065;30;20236;-85
2023/04/21 16:48:29;;;;;;;2.65;1.92;;;;;16.00;100164.00;;;;9825405;30;20230;-84
2023/04/21 16:53:32;;;;;;;5.15;1.58;;;;;16.00;100163.00;;;;9816202;30;20980;-84
2023/04/21 16:58:34;;;;;;;4.78;1.33;;;;;15.90;100148.00;;;;9795585;30;20220;-84
2023/04/21 17:03:36;;;;;;;1.85;1.00;;;;;15.80;100155.00;;;;9797059;30;20601;-84
2023/04/21 17:08:38;;;;;;;2.80;1.17;;;;;15.70;100174.00;;;;9805630;30;20728;-83
2023/04/21 17:13:40;;;;;;;1.97;1.30;;;;;15.60;100165.00;;;;9804863;30;20234;-83
2023/04/21 17:18:43;;;;;;;1.50;1.40;;;;;15.30;100158.00;;;;9794638;30;20236;-83
2023/04/21 17:23:45;;;;;;;1.70;1.60;;;;;15.10;100161.00;;;;9796698;30;20301;-84
2023/04/21 17:28:48;;;;;;;3.17;1.27;;;;;14.90;100147.00;;;;9798232;30;20256;-84
2023/04/21 17:33:52;;;;;;;1.67;1.58;;;;;14.70;100155.00;;;;9810060;30;20231;-83
2023/04/21 17:39:02;;;;;;;1.33;1.20;;;;;14.50;100158.00;;;;9989497;24;21277;-82
2023/04/21 17:44:07;;;;;;;2.97;1.47;;;;;14.30;100171.00;;;;9851669;29;20220;-83
2023/04/21 17:49:09;;;;;;;1.53;1.40;;;;;14.10;100174.00;;;;9867442;29;20589;-83
2023/04/21 17:54:11;;;;;;;1.00;0.97;;;;;14.00;100186.00;;;;9877871;30;20238;-82
2023/04/21 17:59:13;;;;;;;4.87;1.70;;;;;13.90;100188.00;;;;9845114;29;20228;-83
2023/04/21 18:04:16;;;;;;;11.23;7.10;;;;;13.50;100193.00;;;;9869159;30;20243;-84
2023/04/21 18:09:19;;;;;;;10.03;7.10;;;;;12.90;100203.00;;;;9885456;29;20284;-85
2023/04/21 18:14:22;;;;;;;12.47;8.50;;;;;12.50;100215.00;;;;9897857;29;20238;-84
2023/04/21 18:19:24;;;;;;;12.27;7.53;;;;;12.30;100254.00;;;;9890991;30;20248;-83
2023/04/21 18:24:26;;;;;;;10.87;7.33;;;;;12.40;100307.00;;;;9865565;30;21166;-84
2023/04/21 18:29:28;;;;;;;8.37;7.10;;;;;12.30;100305.00;;;;9874193;29;20233;-83
2023/04/21 18:34:30;;;;;;;8.83;4.40;;;;;12.10;100315.00;;;;9875628;30;20234;-83
2023/04/21 18:39:32;;;;;;;4.90;4.30;;;;;11.80;100325.00;;;;9854837;30;20738;-84
2023/04/21 18:44:34;;;;;;;9.73;5.50;;;;;11.60;100323.00;;;;9836806;30;20294;-84
2023/04/21 18:49:39;;;;;;;6.93;5.50;;;;;11.20;100308.00;;;;9842555;30;20251;-84
2023/04/21 18:54:41;;;;;;;6.70;6.00;;;;;10.80;100312.00;;;;9865662;30;20216;-84
2023/04/21 18:59:43;;;;;;;9.80;7.33;;;;;10.50;100273.00;;;;9833921;30;20223;-85
2023/04/21 19:04:46;;;;;;;13.33;7.93;;;;;10.20;100239.00;;;;9841997;30;20244;-83
2023/04/21 19:09:48;;;;;;;9.70;7.73;;;;;9.90;100247.00;;;;9867345;30;20232;-82
2023/04/21 19:14:50;;;;;;;11.17;7.53;;;;;9.80;100250.00;;;;9844240;30;20705;-85
2023/04/21 19:19:53;;;;;;;13.13;7.50;;;;;9.70;100236.00;;;;9825004;30;20224;-86
2023/04/21 19:24:55;;;;;;;13.97;8.33;;;;;9.70;100252.00;;;;9825345;30;20248;-85
2023/04/21 19:29:57;;;;;;;12.87;8.97;;;;;9.70;100262.00;;;;9841732;30;20228;-84
2023/04/21 19:35:00;;;;;;;12.00;8.53;;;;;9.70;100271.00;;;;9852390;30;20307;-86
2023/04/21 19:40:05;;;;;;;10.73;8.27;;;;;9.70;100279.00;;;;9838022;30;20642;-85
2023/04/21 19:45:08;;;;;;;16.80;8.17;;;;;9.70;100281.00;;;;9825085;30;20904;-85
2023/04/21 19:50:11;;;;;;;12.43;10.20;;;;;9.70;100276.00;;;;9862401;30;20627;-86
2023/04/21 19:55:14;;;;;;;14.33;10.23;;;;;9.70;100282.00;;;;9851302;30;20236;-85
2023/04/21 20:00:16;;;;;;;14.87;10.03;;;;;9.60;100277.00;;;;9826677;30;20220;-85
2023/04/21 20:05:18;;;;;;;12.60;10.10;;;;;9.50;100274.00;;;;9844035;30;20251;-85
2023/04/21 20:10:20;;;;;;;15.00;11.60;;;;;9.40;100269.00;;;;9834460;30;20229;-86
2023/04/21 20:15:22;;;;;;;16.53;11.90;;;;;9.40;100261.00;;;;9839013;30;20236;-85
2023/04/21 20:20:24;;;;;;;18.90;12.67;;;;;9.30;100247.00;;;;9845936;30;20236;-85
2023/04/21 20:25:28;;;;;;;16.90;13.37;;;;;9.30;100252.00;;;;9873946;30;20244;-85
2023/04/21 20:30:30;;;;;;;16.70;12.40;;;;;9.10;100249.00;;;;9851008;30;20247;-88
2023/04/21 20:35:38;;;;;;;17.57;12.63;;;;;9.10;100246.00;;;;9839579;30;20316;-86
2023/04/21 20:40:42;;;;;;;14.47;11.93;;;;;9.00;100244.00;;;;9843107;30;20231;-87
2023/04/21 20:45:46;;;;;;;15.60;11.97;;;;;8.90;100236.00;;;;9827793;30;20232;-86
2023/04/21 20:50:48;;;;;;;17.73;12.60;;;;;8.80;100237.00;;;;9855647;30;20700;-87
2023/04/21 20:55:52;;;;;;;16.30;13.00;;;;;8.60;100230.00;;;;9849962;30;20232;-85
2023/04/21 21:00:55;;;;;;;15.63;11.37;;;;;8.60;100243.00;;;;9868345;30;20240;-87
2023/04/21 21:05:57;;;;;;;14.33;11.63;;;;;8.50;100248.00;;;;9852727;30;20240;-87
2023/04/21 21:10:59;;;;;;;15.40;12.10;;;;;8.50;100252.00;;;;9848013;29;20232;-87
2023/04/21 21:16:01;;;;;;;14.33;11.17;;;;;8.60;100257.00;;;;9835563;29;20299;-87
2023/04/21 21:21:05;;;;;;;14.67;11.60;;;;;8.60;100258.00;;;;9851408;30;20223;-87
2023/04/21 21:26:07;;;;;;;15.53;11.27;;;;;8.50;100258.00;;;;9852435;30;20271;-87
2023/04/21 21:31:09;;;;;;;14.17;11.70;;;;;8.40;100260.00;;;;9865749;30;20635;-87
2023/04/21 21:36:14;;;;;;;13.43;10.93;;;;;8.30;100266.00;;;;9847040;30;20228;-85
2023/04/21 21:41:18;;;;;;;15.77;11.50;;;;;8.20;100266.00;;;;9828725;29;20254;-87
2023/04/21 21:46:20;;;;;;;14.17;11.27;;;;;8.00;100259.00;;;;9829922;30;20236;-86
2023/04/21 21:51:23;;;;;;;16.27;11.37;;;;;7.90;100256.00;;;;9859121;30;20228;-87
2023/04/21 21:56:25;;;;;;;14.93;11.13;;;;;7.70;100257.00;;;;9860782;30;20216;-86
2023/04/21 22:01:27;;;;;;;16.13;12.33;;;;;7.50;100259.00;;;;9843801;30;20240;-86
2023/04/21 22:06:33;;;;;;;19.00;13.70;;;;;7.40;100263.00;;;;9848538;30;20231;-85
2023/04/21 22:11:35;;;;;;;19.60;13.27;;;;;7.30;100267.00;;;;9860088;30;20905;-87
2023/04/21 22:16:41;;;;;;;15.37;12.37;;;;;7.30;100268.00;;;;9836036;29;20222;-85
2023/04/21 22:21:43;;;;;;;19.03;13.60;;;;;7.30;100268.00;;;;9851080;30;20216;-87
2023/04/21 22:26:46;;;;;;;16.43;12.60;;;;;7.20;100269.00;;;;9852145;29;20252;-88
2023/04/21 22:31:48;;;;;;;18.63;13.10;;;;;7.00;100271.00;;;;9850358;30;20286;-84
2023/04/21 22:36:52;;;;;;;27.17;16.33;;;;;6.90;100272.00;;;;9844566;30;20229;-86
2023/04/21 22:41:54;;;;;;;24.83;17.53;;;;;6.90;100265.00;;;;9845483;30;20289;-86
2023/04/21 22:46:56;;;;;;;23.20;17.50;;;;;6.80;100270.00;;;;9853371;30;20673;-86
2023/04/21 22:51:59;;;;;;;24.80;17.57;;;;;6.80;100261.00;;;;9842300;30;20228;-86
2023/04/21 22:57:01;;;;;;;27.40;18.90;;;;;6.70;100265.00;;;;9839626;30;20794;-87
2023/04/21 23:02:04;;;;;;;26.80;19.47;;;;;6.70;100256.00;;;;9855132;30;20216;-87
2023/04/21 23:07:06;;;;;;;22.73;17.23;;;;;6.70;100256.00;;;;9858482;30;20654;-86
2023/04/21 23:12:08;;;;;;;23.17;17.00;;;;;6.70;100255.00;;;;9817387;30;20229;-86
2023/04/21 23:17:10;;;;;;;25.07;16.73;;;;;6.70;100258.00;;;;9826511;30;20232;-85
2023/04/21 23:22:13;;;;;;;23.23;17.00;;;;;6.60;100258.00;;;;9869089;29;20247;-86
2023/04/21 23:27:14;;;;;;;23.37;17.10;;;;;6.70;100253.00;;;;9841999;30;20278;-85
2023/04/21 23:32:17;;;;;;;28.73;17.67;;;;;6.70;100257.00;;;;9850517;30;20286;-86
2023/04/21 23:37:19;;;;;;;26.27;18.47;;;;;6.70;100245.00;;;;9863524;30;20232;-86
2023/04/21 23:42:21;;;;;;;30.03;18.43;;;;;6.80;100255.00;;;;9853629;30;20260;-86
2023/04/21 23:47:23;;;;;;;23.33;16.70;;;;;6.80;100254.00;;;;9854363;30;20639;-86
2023/04/21 23:52:25;;;;;;;29.43;19.27;;;;;6.70;100250.00;;;;9860219;30;20233;-86
2023/04/21 23:57:27;;;;;;;25.87;18.03;;;;;6.70;100239.00;;;;9830892;30;20324;-84
